createdAt,value
2019-02-20T00:00:23.725Z,101196.00
2019-02-20T00:02:56.671Z,101194.00
2019-02-20T00:05:29.514Z,101192.00
2019-02-20T00:08:02.712Z,101197.00
2019-02-20T00:10:35.705Z,101188.00
2019-02-20T00:13:08.875Z,101183.00
2019-02-20T00:15:41.682Z,101179.00
2019-02-20T00:18:14.564Z,101175.00
2019-02-20T00:20:47.314Z,101179.00
2019-02-20T00:23:21.054Z,101183.00
2019-02-20T00:25:54.029Z,101176.00
2019-02-20T00:28:27.203Z,101185.00
2019-02-20T00:31:00.119Z,101188.00
2019-02-20T00:33:33.116Z,101183.00
2019-02-20T00:36:06.167Z,101197.00
2019-02-20T00:38:38.956Z,101195.00
2019-02-20T00:41:12.547Z,101197.00
2019-02-20T00:43:46.412Z,101202.00
2019-02-20T00:46:20.540Z,101193.00
2019-02-20T00:48:54.609Z,101189.00
2019-02-20T00:51:37.858Z,101198.00
2019-02-20T00:54:11.770Z,101195.00
2019-02-20T00:56:44.648Z,101208.00
2019-02-20T00:59:17.895Z,101210.00
2019-02-20T01:01:50.678Z,101209.00
2019-02-20T01:04:23.783Z,101219.00
2019-02-20T01:06:56.551Z,101218.00
2019-02-20T01:09:29.631Z,101217.00
2019-02-20T01:12:02.541Z,101214.00
2019-02-20T01:14:35.664Z,101209.00
2019-02-20T01:17:08.920Z,101209.00
2019-02-20T01:19:41.773Z,101212.00
2019-02-20T01:22:15.096Z,101202.00
2019-02-20T01:24:48.158Z,101209.00
2019-02-20T01:27:21.367Z,101201.00
2019-02-20T01:29:54.572Z,101206.00
2019-02-20T01:32:27.569Z,101207.00
2019-02-20T01:35:00.440Z,101215.00
2019-02-20T01:37:33.462Z,101218.00
2019-02-20T01:40:06.292Z,101222.00
2019-02-20T01:42:39.379Z,101225.00
2019-02-20T01:45:12.860Z,101236.00
2019-02-20T01:47:45.905Z,101222.00
2019-02-20T01:50:18.769Z,101225.00
2019-02-20T01:52:52.845Z,101227.00
2019-02-20T01:55:25.754Z,101229.00
2019-02-20T01:57:58.806Z,101229.00
2019-02-20T02:00:31.727Z,101226.00
2019-02-20T02:03:04.643Z,101226.00
2019-02-20T02:05:37.504Z,101233.00
2019-02-20T02:08:10.628Z,101228.00
2019-02-20T02:10:43.358Z,101217.00
2019-02-20T02:13:16.437Z,101218.00
2019-02-20T02:15:49.242Z,101225.00
2019-02-20T02:18:22.526Z,101215.00
2019-02-20T02:20:55.409Z,101216.00
2019-02-20T02:23:28.615Z,101221.00
2019-02-20T02:26:10.497Z,101215.00
2019-02-20T02:28:37.439Z,101210.00
2019-02-20T02:31:10.430Z,101224.00
2019-02-20T02:33:43.422Z,101218.00
2019-02-20T02:36:16.419Z,101211.00
2019-02-20T02:38:49.506Z,101209.00
2019-02-20T02:41:22.384Z,101210.00
2019-02-20T02:43:56.284Z,101208.00
2019-02-20T02:46:29.251Z,101205.00
2019-02-20T02:49:02.153Z,101201.00
2019-02-20T02:51:36.301Z,101199.00
2019-02-20T02:54:09.165Z,101209.00
2019-02-20T02:56:42.263Z,101217.00
2019-02-20T02:59:15.780Z,101217.00
2019-02-20T03:01:48.663Z,101220.00
2019-02-20T03:04:22.061Z,101222.00
2019-02-20T03:06:54.906Z,101215.00
2019-02-20T03:09:27.880Z,101216.00
2019-02-20T03:12:00.567Z,101218.00
2019-02-20T03:14:33.666Z,101208.00
2019-02-20T03:17:06.451Z,101210.00
2019-02-20T03:19:39.362Z,101199.00
2019-02-20T03:22:12.219Z,101199.00
2019-02-20T03:24:45.370Z,101190.00
2019-02-20T03:27:18.196Z,101188.00
2019-02-20T03:29:51.364Z,101187.00
2019-02-20T03:32:24.169Z,101187.00
2019-02-20T03:34:57.342Z,101185.00
2019-02-20T03:37:30.135Z,101186.00
2019-02-20T03:40:03.063Z,101185.00
2019-02-20T03:42:35.926Z,101191.00
2019-02-20T03:45:10.106Z,101199.00
2019-02-20T03:47:44.365Z,101217.00
2019-02-20T03:50:18.932Z,101209.00
2019-02-20T03:52:51.951Z,101198.00
2019-02-20T03:55:24.863Z,101197.00
2019-02-20T03:57:58.393Z,101203.00
2019-02-20T04:00:31.319Z,101204.00
2019-02-20T04:03:04.112Z,101211.00
2019-02-20T04:05:37.454Z,101209.00
2019-02-20T04:08:10.297Z,101201.00
2019-02-20T04:10:43.620Z,101202.00
2019-02-20T04:13:16.340Z,101203.00
2019-02-20T04:15:49.425Z,101200.00
2019-02-20T04:18:23.457Z,101186.00
2019-02-20T04:20:56.375Z,101176.00
2019-02-20T04:23:29.242Z,101201.00
2019-02-20T04:26:02.140Z,101203.00
2019-02-20T04:28:35.001Z,101205.00
2019-02-20T04:31:08.911Z,101213.00
2019-02-20T04:33:42.470Z,101197.00
2019-02-20T04:36:16.086Z,101204.00
2019-02-20T04:38:49.198Z,101202.00
2019-02-20T04:41:22.156Z,101208.00
2019-02-20T04:43:55.079Z,101208.00
2019-02-20T04:46:28.104Z,101223.00
2019-02-20T04:49:00.847Z,101218.00
2019-02-20T04:51:33.784Z,101207.00
2019-02-20T04:54:13.055Z,101215.00
2019-02-20T04:56:40.640Z,101210.00
2019-02-20T04:59:13.509Z,101202.00
2019-02-20T05:01:46.602Z,101200.00
2019-02-20T05:04:19.768Z,101195.00
2019-02-20T05:06:52.651Z,101198.00
2019-02-20T05:09:25.989Z,101195.00
2019-02-20T05:11:59.013Z,101189.00
2019-02-20T05:14:31.842Z,101195.00
2019-02-20T05:17:04.879Z,101194.00
2019-02-20T05:19:37.818Z,101201.00
2019-02-20T05:22:10.796Z,101199.00
2019-02-20T05:24:43.626Z,101203.00
2019-02-20T05:27:17.948Z,101204.00
2019-02-20T05:29:50.955Z,101211.00
2019-02-20T05:32:24.918Z,101212.00
2019-02-20T05:34:57.761Z,101205.00
2019-02-20T05:37:30.749Z,101199.00
2019-02-20T05:40:03.627Z,101212.00
2019-02-20T05:42:37.520Z,101201.00
2019-02-20T05:45:10.905Z,101201.00
2019-02-20T05:47:43.924Z,101201.00
2019-02-20T05:50:16.930Z,101192.00
2019-02-20T05:52:50.012Z,101197.00
2019-02-20T05:55:23.094Z,101194.00
2019-02-20T05:57:56.085Z,101192.00
2019-02-20T06:00:28.923Z,101198.00
2019-02-20T06:03:01.719Z,101194.00
2019-02-20T06:05:35.557Z,101189.00
2019-02-20T06:08:08.328Z,101194.00
2019-02-20T06:10:41.288Z,101189.00
2019-02-20T06:13:14.254Z,101189.00
2019-02-20T06:15:47.372Z,101188.00
2019-02-20T06:18:21.404Z,101197.00
2019-02-20T06:20:54.251Z,101198.00
2019-02-20T06:23:27.183Z,101194.00
2019-02-20T06:26:00.301Z,101194.00
2019-02-20T06:28:34.366Z,101201.00
2019-02-20T06:31:07.376Z,101211.00
2019-02-20T06:33:40.154Z,101215.00
2019-02-20T06:36:13.150Z,101212.00
2019-02-20T06:38:45.914Z,101197.00
2019-02-20T06:41:18.891Z,101192.00
2019-02-20T06:43:51.553Z,101197.00
2019-02-20T06:46:24.659Z,101207.00
2019-02-20T06:48:57.439Z,101209.00
2019-02-20T06:51:30.361Z,101215.00
2019-02-20T06:54:03.220Z,101213.00
2019-02-20T06:56:36.339Z,101217.00
2019-02-20T06:59:09.390Z,101211.00
2019-02-20T07:01:42.429Z,101223.00
2019-02-20T07:04:15.168Z,101230.00
2019-02-20T07:06:58.140Z,101236.00
2019-02-20T07:09:51.093Z,101238.00
2019-02-20T07:12:35.841Z,101245.00
2019-02-20T07:15:41.485Z,101250.00
2019-02-20T07:18:30.792Z,101238.00
2019-02-20T07:21:11.542Z,101239.00
2019-02-20T07:23:52.092Z,101246.00
2019-02-20T07:26:54.428Z,101242.00
2019-02-20T07:29:46.994Z,101245.00
2019-02-20T07:32:20.455Z,101248.00
2019-02-20T07:34:54.264Z,101240.00
2019-02-20T07:37:27.143Z,101234.00
2019-02-20T07:40:00.255Z,101246.00
2019-02-20T07:42:33.120Z,101244.00
2019-02-20T07:45:06.275Z,101242.00
2019-02-20T07:47:39.160Z,101251.00
2019-02-20T07:50:13.508Z,101260.00
2019-02-20T07:52:47.397Z,101261.00
2019-02-20T07:55:20.320Z,101259.00
2019-02-20T07:57:53.232Z,101268.00
2019-02-20T08:00:26.024Z,101259.00
2019-02-20T08:03:00.041Z,101266.00
2019-02-20T08:05:33.131Z,101270.00
2019-02-20T08:08:05.911Z,101275.00
2019-02-20T08:10:39.845Z,101279.00
2019-02-20T08:13:12.713Z,101273.00
2019-02-20T08:15:46.440Z,101269.00
2019-02-20T08:18:19.202Z,101265.00
2019-02-20T08:20:52.429Z,101271.00
2019-02-20T08:23:25.276Z,101275.00
2019-02-20T08:25:59.678Z,101287.00
2019-02-20T08:28:33.567Z,101291.00
2019-02-20T08:31:06.679Z,101289.00
2019-02-20T08:33:39.685Z,101298.00
2019-02-20T08:36:12.471Z,101297.00
2019-02-20T08:38:45.658Z,101291.00
2019-02-20T08:41:19.688Z,101294.00
2019-02-20T08:43:53.642Z,101299.00
2019-02-20T08:46:26.455Z,101301.00
2019-02-20T08:48:59.373Z,101309.00
2019-02-20T08:51:32.125Z,101311.00
2019-02-20T08:54:05.210Z,101308.00
2019-02-20T08:56:38.121Z,101322.00
2019-02-20T08:59:12.661Z,101320.00
2019-02-20T09:01:45.604Z,101322.00
2019-02-20T09:04:18.923Z,101337.00
2019-02-20T09:06:51.959Z,101338.00
2019-02-20T09:09:25.292Z,101347.00
2019-02-20T09:11:58.157Z,101343.00
2019-02-20T09:14:31.356Z,101343.00
2019-02-20T09:17:04.335Z,101347.00
2019-02-20T09:19:37.329Z,101348.00
2019-02-20T09:22:10.142Z,101351.00
2019-02-20T09:24:44.684Z,101346.00
2019-02-20T09:27:17.614Z,101340.00
2019-02-20T09:29:51.752Z,101344.00
2019-02-20T09:32:24.898Z,101355.00
2019-02-20T09:34:57.763Z,101343.00
2019-02-20T09:37:30.975Z,101356.00
2019-02-20T09:40:04.080Z,101351.00
2019-02-20T09:42:37.071Z,101356.00
2019-02-20T09:45:11.145Z,101358.00
2019-02-20T09:47:44.439Z,101359.00
2019-02-20T09:50:17.261Z,101358.00
2019-02-20T09:52:52.320Z,101356.00
2019-02-20T09:55:24.447Z,101340.00
2019-02-20T09:57:57.400Z,101341.00
2019-02-20T10:00:30.266Z,101350.00
2019-02-20T10:03:03.150Z,101356.00
2019-02-20T10:05:36.039Z,101358.00
2019-02-20T10:08:09.290Z,101365.00
2019-02-20T10:10:42.175Z,101366.00
2019-02-20T10:13:15.592Z,101355.00
2019-02-20T10:16:08.130Z,101352.00
2019-02-20T10:18:41.402Z,101357.00
2019-02-20T10:21:14.211Z,101363.00
2019-02-20T10:23:47.461Z,101364.00
2019-02-20T10:26:20.374Z,101361.00
2019-02-20T10:28:54.099Z,101363.00
2019-02-20T10:31:27.148Z,101355.00
2019-02-20T10:33:59.955Z,101362.00
2019-02-20T10:36:33.124Z,101369.00
2019-02-20T10:39:07.126Z,101374.00
2019-02-20T10:41:40.227Z,101379.00
2019-02-20T10:44:13.517Z,101381.00
2019-02-20T10:46:46.433Z,101378.00
2019-02-20T10:49:19.307Z,101387.00
2019-02-20T10:51:52.712Z,101381.00
2019-02-20T10:54:25.787Z,101384.00
2019-02-20T10:56:58.670Z,101386.00
2019-02-20T10:59:31.596Z,101382.00
2019-02-20T11:02:04.740Z,101371.00
2019-02-20T11:04:37.648Z,101372.00
2019-02-20T11:07:10.848Z,101381.00
2019-02-20T11:09:43.849Z,101375.00
2019-02-20T11:12:16.918Z,101370.00
2019-02-20T11:14:52.952Z,101379.00
2019-02-20T11:17:26.079Z,101382.00
2019-02-20T11:19:59.087Z,101375.00
2019-02-20T11:22:32.276Z,101387.00
2019-02-20T11:25:04.872Z,101399.00
2019-02-20T11:27:39.464Z,101400.00
2019-02-20T11:30:14.084Z,101397.00
2019-02-20T11:32:53.374Z,101401.00
2019-02-20T11:35:26.356Z,101407.00
2019-02-20T11:37:59.357Z,101400.00
2019-02-20T11:40:32.202Z,101394.00
2019-02-20T11:43:06.207Z,101390.00
2019-02-20T11:45:40.410Z,101387.00
2019-02-20T11:48:13.366Z,101384.00
2019-02-20T11:50:46.538Z,101381.00
2019-02-20T11:53:20.187Z,101391.00
2019-02-20T11:55:53.238Z,101384.00
2019-02-20T11:58:26.154Z,101381.00
2019-02-20T12:00:59.158Z,101376.00
2019-02-20T12:03:31.782Z,101377.00
2019-02-20T12:06:04.783Z,101381.00
2019-02-20T12:08:38.071Z,101377.00
2019-02-20T12:11:11.348Z,101385.00
2019-02-20T12:13:44.284Z,101387.00
2019-02-20T12:16:17.347Z,101385.00
2019-02-20T12:18:50.555Z,101375.00
2019-02-20T12:21:23.602Z,101380.00
2019-02-20T12:23:56.528Z,101377.00
2019-02-20T12:26:34.865Z,101362.00
2019-02-20T12:29:03.396Z,101372.00
2019-02-20T12:31:36.676Z,101376.00
2019-02-20T12:34:09.671Z,101376.00
2019-02-20T12:36:42.717Z,101367.00
2019-02-20T12:39:16.224Z,101358.00
2019-02-20T12:41:49.145Z,101361.00
2019-02-20T12:44:22.600Z,101375.00
2019-02-20T12:46:55.405Z,101373.00
2019-02-20T12:49:28.499Z,101365.00
2019-02-20T12:52:01.509Z,101363.00
2019-02-20T12:54:34.354Z,101356.00
2019-02-20T12:57:07.274Z,101363.00
2019-02-20T12:59:40.907Z,101352.00
2019-02-20T13:02:13.847Z,101358.00
2019-02-20T13:04:46.879Z,101347.00
2019-02-20T13:07:19.847Z,101357.00
2019-02-20T13:09:53.664Z,101334.00
2019-02-20T13:12:26.656Z,101337.00
2019-02-20T13:14:59.904Z,101331.00
2019-02-20T13:17:32.815Z,101327.00
2019-02-20T13:20:06.703Z,101326.00
2019-02-20T13:22:40.415Z,101331.00
2019-02-20T13:25:13.703Z,101335.00
2019-02-20T13:27:46.961Z,101340.00
2019-02-20T13:30:19.967Z,101330.00
2019-02-20T13:32:52.784Z,101321.00
2019-02-20T13:35:25.550Z,101329.00
2019-02-20T13:37:58.636Z,101324.00
2019-02-20T13:40:31.761Z,101323.00
2019-02-20T13:43:05.098Z,101320.00
2019-02-20T13:45:38.144Z,101313.00
2019-02-20T13:48:11.349Z,101315.00
2019-02-20T13:50:44.342Z,101321.00
2019-02-20T13:53:17.287Z,101315.00
2019-02-20T13:55:50.582Z,101310.00
2019-02-20T13:58:23.636Z,101303.00
2019-02-20T14:00:56.734Z,101306.00
2019-02-20T14:03:29.814Z,101305.00
2019-02-20T14:06:02.650Z,101296.00
2019-02-20T14:08:35.916Z,101296.00
2019-02-20T14:11:08.792Z,101298.00
2019-02-20T14:13:42.040Z,101302.00
2019-02-20T14:16:15.051Z,101305.00
2019-02-20T14:18:48.489Z,101302.00
2019-02-20T14:21:21.564Z,101306.00
2019-02-20T14:23:55.137Z,101308.00
2019-02-20T14:26:28.272Z,101310.00
2019-02-20T14:29:02.317Z,101306.00
2019-02-20T14:31:35.302Z,101307.00
2019-02-20T14:34:08.526Z,101309.00
2019-02-20T14:36:41.545Z,101305.00
2019-02-20T14:39:15.359Z,101306.00
2019-02-20T14:41:49.282Z,101309.00
2019-02-20T14:44:22.161Z,101306.00
2019-02-20T14:46:55.559Z,101312.00
2019-02-20T14:49:28.360Z,101310.00
2019-02-20T14:52:01.501Z,101316.00
2019-02-20T14:54:34.467Z,101309.00
2019-02-20T14:57:07.853Z,101312.00
2019-02-20T14:59:40.897Z,101311.00
2019-02-20T15:02:13.975Z,101305.00
2019-02-20T15:04:46.824Z,101306.00
2019-02-20T15:07:19.913Z,101299.00
2019-02-20T15:09:54.064Z,101292.00
2019-02-20T15:12:27.005Z,101302.00
2019-02-20T15:14:59.798Z,101288.00
2019-02-20T15:17:32.782Z,101283.00
2019-02-20T15:20:05.782Z,101289.00
2019-02-20T15:22:39.216Z,101281.00
2019-02-20T15:25:12.447Z,101282.00
2019-02-20T15:27:45.654Z,101290.00
2019-02-20T15:30:19.163Z,101296.00
2019-02-20T15:32:52.178Z,101297.00
2019-02-20T15:35:25.252Z,101292.00
2019-02-20T15:37:58.316Z,101300.00
2019-02-20T15:40:31.519Z,101296.00
2019-02-20T15:43:04.616Z,101291.00
2019-02-20T15:45:37.542Z,101286.00
2019-02-20T15:48:10.662Z,101282.00
2019-02-20T15:50:43.678Z,101283.00
2019-02-20T15:53:16.735Z,101272.00
2019-02-20T15:55:49.876Z,101274.00
2019-02-20T15:58:24.003Z,101274.00
2019-02-20T16:00:58.076Z,101268.00
2019-02-20T16:03:31.248Z,101268.00
2019-02-20T16:06:04.304Z,101263.00
2019-02-20T16:08:37.456Z,101267.00
2019-02-20T16:11:10.615Z,101259.00
2019-02-20T16:13:43.895Z,101261.00
2019-02-20T16:16:17.202Z,101255.00
2019-02-20T16:18:50.811Z,101263.00
2019-02-20T16:21:23.601Z,101256.00
2019-02-20T16:23:56.994Z,101256.00
2019-02-20T16:26:29.999Z,101254.00
2019-02-20T16:29:02.941Z,101268.00
2019-02-20T16:31:36.201Z,101265.00
2019-02-20T16:34:09.271Z,101267.00
2019-02-20T16:36:43.264Z,101268.00
2019-02-20T16:39:16.031Z,101271.00
2019-02-20T16:41:49.443Z,101261.00
2019-02-20T16:44:22.363Z,101262.00
2019-02-20T16:46:55.423Z,101270.00
2019-02-20T16:49:28.357Z,101278.00
2019-02-20T16:52:01.469Z,101279.00
2019-02-20T16:54:34.508Z,101293.00
2019-02-20T16:57:07.785Z,101287.00
2019-02-20T16:59:40.533Z,101284.00
2019-02-20T17:02:14.043Z,101282.00
2019-02-20T17:04:47.044Z,101281.00
2019-02-20T17:07:19.824Z,101280.00
2019-02-20T17:09:53.196Z,101278.00
2019-02-20T17:12:26.245Z,101290.00
2019-02-20T17:14:59.450Z,101293.00
2019-02-20T17:17:32.600Z,101295.00
2019-02-20T17:20:05.694Z,101295.00
2019-02-20T17:22:38.457Z,101306.00
2019-02-20T17:25:13.351Z,101303.00
2019-02-20T17:27:46.681Z,101303.00
2019-02-20T17:30:20.176Z,101308.00
2019-02-20T17:32:53.364Z,101316.00
2019-02-20T17:35:26.696Z,101313.00
2019-02-20T17:37:59.656Z,101310.00
2019-02-20T17:40:32.734Z,101307.00
2019-02-20T17:43:06.854Z,101310.00
2019-02-20T17:45:39.854Z,101308.00
2019-02-20T17:48:12.839Z,101311.00
2019-02-20T17:50:45.908Z,101331.00
2019-02-20T17:53:18.888Z,101326.00
2019-02-20T17:55:51.956Z,101343.00
2019-02-20T17:58:24.872Z,101336.00
2019-02-20T18:00:57.917Z,101338.00
2019-02-20T18:03:31.518Z,101330.00
2019-02-20T18:06:04.454Z,101330.00
2019-02-20T18:08:37.511Z,101330.00
2019-02-20T18:11:10.435Z,101339.00
2019-02-20T18:13:43.289Z,101348.00
2019-02-20T18:16:16.193Z,101348.00
2019-02-20T18:18:49.155Z,101343.00
2019-02-20T18:21:21.960Z,101340.00
2019-02-20T18:23:54.906Z,101339.00
2019-02-20T18:26:28.206Z,101340.00
2019-02-20T18:29:01.129Z,101349.00
2019-02-20T18:31:33.972Z,101360.00
2019-02-20T18:34:06.896Z,101364.00
2019-02-20T18:36:40.014Z,101356.00
2019-02-20T18:39:13.269Z,101352.00
2019-02-20T18:41:46.267Z,101343.00
2019-02-20T18:44:19.432Z,101347.00
2019-02-20T18:46:52.444Z,101365.00
2019-02-20T18:49:25.435Z,101368.00
2019-02-20T18:51:58.198Z,101369.00
2019-02-20T18:54:31.007Z,101359.00
2019-02-20T18:57:03.980Z,101365.00
2019-02-20T18:59:36.963Z,101350.00
2019-02-20T19:02:09.859Z,101359.00
2019-02-20T19:04:42.752Z,101361.00
2019-02-20T19:07:15.990Z,101370.00
2019-02-20T19:09:48.954Z,101375.00
2019-02-20T19:12:39.046Z,101384.00
2019-02-20T19:15:25.711Z,101381.00
2019-02-20T19:18:15.481Z,101374.00
2019-02-20T19:20:50.478Z,101379.00
2019-02-20T19:23:57.254Z,101378.00
2019-02-20T19:26:59.385Z,101377.00
2019-02-20T19:29:52.232Z,101371.00
2019-02-20T19:32:42.908Z,101370.00
2019-02-20T19:35:21.120Z,101368.00
2019-02-20T19:38:12.562Z,101369.00
2019-02-20T19:40:56.181Z,101379.00
2019-02-20T19:43:36.749Z,101383.00
2019-02-20T19:46:30.048Z,101395.00
2019-02-20T19:49:20.247Z,101393.00
2019-02-20T19:52:22.604Z,101398.00
2019-02-20T19:54:57.350Z,101409.00
2019-02-20T19:57:48.061Z,101402.00
2019-02-20T20:00:25.827Z,101397.00
2019-02-20T20:03:03.482Z,101392.00
2019-02-20T20:05:44.146Z,101395.00
2019-02-20T20:08:31.283Z,101408.00
2019-02-20T20:11:22.653Z,101415.00
2019-02-20T20:14:15.436Z,101420.00
2019-02-20T20:16:51.060Z,101417.00
2019-02-20T20:19:29.554Z,101421.00
2019-02-20T20:22:07.850Z,101431.00
2019-02-20T20:24:48.562Z,101432.00
2019-02-20T20:27:33.165Z,101434.00
2019-02-20T20:30:22.813Z,101423.00
2019-02-20T20:33:22.156Z,101420.00
2019-02-20T20:36:26.909Z,101412.00
2019-02-20T20:39:10.672Z,101415.00
2019-02-20T20:42:11.537Z,101421.00
2019-02-20T20:44:49.013Z,101425.00
2019-02-20T20:47:35.550Z,101443.00
2019-02-20T20:50:10.371Z,101442.00
2019-02-20T20:52:54.432Z,101447.00
2019-02-20T20:55:29.527Z,101458.00
2019-02-20T20:58:04.337Z,101465.00
2019-02-20T21:00:58.616Z,101463.00
2019-02-20T21:03:48.800Z,101464.00
2019-02-20T21:06:43.020Z,101468.00
2019-02-20T21:09:24.013Z,101468.00
2019-02-20T21:12:10.987Z,101461.00
2019-02-20T21:14:45.889Z,101452.00
2019-02-20T21:17:23.902Z,101449.00
2019-02-20T21:20:02.031Z,101447.00
2019-02-20T21:22:53.239Z,101451.00
2019-02-20T21:25:42.586Z,101440.00
2019-02-20T21:28:40.034Z,101449.00
2019-02-20T21:31:29.667Z,101455.00
2019-02-20T21:34:21.986Z,101449.00
2019-02-20T21:37:25.895Z,101447.00
2019-02-20T21:40:26.282Z,101448.00
2019-02-20T21:43:08.022Z,101441.00
2019-02-20T21:45:46.020Z,101445.00
2019-02-20T21:48:30.697Z,101447.00
2019-02-20T21:51:11.405Z,101452.00
2019-02-20T21:54:01.798Z,101447.00
2019-02-20T21:56:39.073Z,101441.00
2019-02-20T21:59:25.958Z,101440.00
2019-02-20T22:02:23.830Z,101435.00
2019-02-20T22:05:07.703Z,101419.00
2019-02-20T22:07:58.919Z,101427.00
2019-02-20T22:10:36.555Z,101425.00
2019-02-20T22:13:28.004Z,101429.00
2019-02-20T22:16:22.219Z,101440.00
2019-02-20T22:19:06.404Z,101446.00
2019-02-20T22:21:57.997Z,101452.00
2019-02-20T22:25:07.046Z,101446.00
2019-02-20T22:27:48.596Z,101428.00
2019-02-20T22:30:45.035Z,101421.00
2019-02-20T22:33:26.541Z,101425.00
2019-02-20T22:36:13.247Z,101412.00
2019-02-20T22:39:11.119Z,101409.00
2019-02-20T22:41:54.972Z,101414.00
2019-02-20T22:44:50.394Z,101425.00
2019-02-20T22:47:25.675Z,101452.00
2019-02-20T22:50:09.578Z,101447.00
2019-02-20T22:52:44.572Z,101450.00
2019-02-20T22:55:52.576Z,101457.00
2019-02-20T22:58:29.938Z,101449.00
2019-02-20T23:01:25.803Z,101443.00
2019-02-20T23:04:18.664Z,101437.00
2019-02-20T23:07:22.124Z,101429.00
2019-02-20T23:10:02.705Z,101439.00
2019-02-20T23:12:38.241Z,101441.00
2019-02-20T23:15:11.058Z,101445.00
2019-02-20T23:17:43.919Z,101446.00
2019-02-20T23:20:16.836Z,101433.00
2019-02-20T23:22:50.272Z,101436.00
2019-02-20T23:25:23.205Z,101427.00
2019-02-20T23:27:56.333Z,101433.00
2019-02-20T23:30:29.402Z,101433.00
2019-02-20T23:33:02.371Z,101424.00
2019-02-20T23:35:35.364Z,101430.00
2019-02-20T23:38:08.279Z,101434.00
2019-02-20T23:40:41.138Z,101436.00
2019-02-20T23:43:15.046Z,101429.00
2019-02-20T23:45:47.805Z,101428.00
2019-02-20T23:48:20.894Z,101432.00
2019-02-20T23:50:53.748Z,101433.00
2019-02-20T23:53:26.516Z,101437.00
2019-02-20T23:55:59.503Z,101434.00
2019-02-20T23:58:32.640Z,101440.00
